createdAt,value
2022-10-21T00:00:12.893Z,8.90
2022-10-21T00:02:40.984Z,9.10
2022-10-21T00:05:10.995Z,9.10
2022-10-21T00:07:39.282Z,10.33
2022-10-21T00:10:08.284Z,10.43
2022-10-21T00:12:36.976Z,9.30
2022-10-21T00:15:06.094Z,9.63
2022-10-21T00:17:36.164Z,9.37
2022-10-21T00:20:05.090Z,9.67
2022-10-21T00:22:34.548Z,9.87
2022-10-21T00:25:02.535Z,9.47
2022-10-21T00:27:30.273Z,9.77
2022-10-21T00:29:58.071Z,9.43
2022-10-21T00:32:25.823Z,9.07
2022-10-21T00:34:53.738Z,8.40
2022-10-21T00:37:21.525Z,9.17
2022-10-21T00:39:51.053Z,9.30
2022-10-21T00:42:21.471Z,9.03
2022-10-21T00:45:07.547Z,9.00
2022-10-21T00:47:42.833Z,8.53
2022-10-21T00:50:23.064Z,8.50
2022-10-21T00:52:50.926Z,8.23
2022-10-21T00:55:20.450Z,8.67
2022-10-21T00:57:48.701Z,7.67
2022-10-21T01:00:17.079Z,7.77
2022-10-21T01:02:45.673Z,7.73
2022-10-21T01:05:13.893Z,8.27
2022-10-21T01:07:42.068Z,8.13
2022-10-21T01:10:10.401Z,8.47
2022-10-21T01:12:52.790Z,7.33
2022-10-21T01:15:25.880Z,6.83
2022-10-21T01:18:02.811Z,7.43
2022-10-21T01:20:48.938Z,7.30
2022-10-21T01:23:49.079Z,7.30
2022-10-21T01:26:49.702Z,6.80
2022-10-21T01:29:39.036Z,7.37
2022-10-21T01:32:20.174Z,7.30
2022-10-21T01:34:59.151Z,7.93
2022-10-21T01:37:35.409Z,7.73
2022-10-21T01:40:07.488Z,7.10
2022-10-21T01:42:42.434Z,7.60
2022-10-21T01:45:18.677Z,7.60
2022-10-21T01:47:51.370Z,6.87
2022-10-21T01:50:23.915Z,7.13
2022-10-21T01:52:55.808Z,6.93
2022-10-21T01:55:27.374Z,7.23
2022-10-21T01:57:59.946Z,7.57
2022-10-21T02:00:27.799Z,6.80
2022-10-21T02:02:58.521Z,6.87
2022-10-21T02:05:31.321Z,6.90
2022-10-21T02:07:59.235Z,6.60
2022-10-21T02:10:30.793Z,6.60
2022-10-21T02:13:01.515Z,6.87
2022-10-21T02:15:31.354Z,6.30
2022-10-21T02:18:05.602Z,6.47
2022-10-21T02:20:37.882Z,6.50
2022-10-21T02:23:08.113Z,6.17
2022-10-21T02:25:39.777Z,6.20
2022-10-21T02:28:08.552Z,6.37
2022-10-21T02:30:44.047Z,6.13
2022-10-21T02:33:19.616Z,6.00
2022-10-21T02:35:55.992Z,7.10
2022-10-21T02:38:27.407Z,6.40
2022-10-21T02:40:57.835Z,6.10
2022-10-21T02:43:28.887Z,5.67
2022-10-21T02:46:01.739Z,6.23
2022-10-21T02:48:33.983Z,5.70
2022-10-21T02:51:01.816Z,6.23
2022-10-21T02:53:29.564Z,5.90
2022-10-21T02:55:57.316Z,6.13
2022-10-21T02:58:25.079Z,6.47
2022-10-21T03:00:52.924Z,5.40
2022-10-21T03:03:23.512Z,5.37
2022-10-21T03:05:52.618Z,5.67
2022-10-21T03:08:20.527Z,5.50
2022-10-21T03:10:53.028Z,5.00
2022-10-21T03:13:21.410Z,4.80
2022-10-21T03:15:49.962Z,4.60
2022-10-21T03:18:19.126Z,4.97
2022-10-21T03:20:54.216Z,4.53
2022-10-21T03:23:22.669Z,4.73
2022-10-21T03:25:50.432Z,4.83
2022-10-21T03:28:18.210Z,4.43
2022-10-21T03:30:46.029Z,4.60
2022-10-21T03:33:13.815Z,4.20
2022-10-21T03:35:41.564Z,4.43
2022-10-21T03:38:10.768Z,4.13
2022-10-21T03:40:38.621Z,3.73
2022-10-21T03:43:06.429Z,4.17
2022-10-21T03:45:34.187Z,4.20
2022-10-21T03:48:02.116Z,3.80
2022-10-21T03:50:29.919Z,4.17
2022-10-21T03:52:59.257Z,4.00
2022-10-21T03:55:28.740Z,4.10
2022-10-21T03:57:56.665Z,3.90
2022-10-21T04:00:27.069Z,4.23
2022-10-21T04:02:57.357Z,3.87
2022-10-21T04:05:25.124Z,3.83
2022-10-21T04:07:53.217Z,3.63
2022-10-21T04:10:21.798Z,4.27
2022-10-21T04:12:50.982Z,3.47
2022-10-21T04:15:18.972Z,3.23
2022-10-21T04:17:47.784Z,3.77
2022-10-21T04:20:15.605Z,3.57
2022-10-21T04:22:43.414Z,3.43
2022-10-21T04:25:11.665Z,3.73
2022-10-21T04:27:39.515Z,3.40
2022-10-21T04:30:10.266Z,3.57
2022-10-21T04:32:38.421Z,3.30
2022-10-21T04:35:07.046Z,3.60
2022-10-21T04:37:35.183Z,3.43
2022-10-21T04:40:02.949Z,3.63
2022-10-21T04:42:30.720Z,3.73
2022-10-21T04:44:58.575Z,3.37
2022-10-21T04:47:27.689Z,3.53
2022-10-21T04:49:55.517Z,2.73
2022-10-21T04:52:23.346Z,3.13
2022-10-21T04:54:51.556Z,3.47
2022-10-21T04:57:20.435Z,3.13
2022-10-21T04:59:48.247Z,3.63
2022-10-21T05:02:16.631Z,3.57
2022-10-21T05:04:46.957Z,3.20
2022-10-21T05:07:14.794Z,2.93
2022-10-21T05:09:42.735Z,3.03
2022-10-21T05:12:13.576Z,2.97
2022-10-21T05:14:41.353Z,3.40
2022-10-21T05:17:09.209Z,3.13
2022-10-21T05:19:36.989Z,3.00
2022-10-21T05:22:06.161Z,3.40
2022-10-21T05:24:34.033Z,3.30
2022-10-21T05:27:01.780Z,3.40
2022-10-21T05:29:29.568Z,2.93
2022-10-21T05:31:57.370Z,2.80
2022-10-21T05:34:25.168Z,2.97
2022-10-21T05:36:53.003Z,2.80
2022-10-21T05:39:22.159Z,3.00
2022-10-21T05:41:49.994Z,3.23
2022-10-21T05:44:17.827Z,2.90
2022-10-21T05:46:45.690Z,2.73
2022-10-21T05:49:13.942Z,2.90
2022-10-21T05:51:41.856Z,2.93
2022-10-21T05:54:09.630Z,2.83
2022-10-21T05:56:38.929Z,2.83
2022-10-21T05:59:09.364Z,3.07
2022-10-21T06:01:39.576Z,2.93
2022-10-21T06:04:07.569Z,2.87
2022-10-21T06:06:35.558Z,3.10
2022-10-21T06:09:03.499Z,5.30
2022-10-21T06:11:31.740Z,4.70
2022-10-21T06:14:01.235Z,4.90
2022-10-21T06:16:29.307Z,3.40
2022-10-21T06:18:57.113Z,3.90
2022-10-21T06:21:25.996Z,3.57
2022-10-21T06:23:54.769Z,3.87
2022-10-21T06:26:22.644Z,3.83
2022-10-21T06:28:50.437Z,4.20
2022-10-21T06:31:21.768Z,4.03
2022-10-21T06:33:49.638Z,3.80
2022-10-21T06:36:17.778Z,4.30
2022-10-21T06:38:45.858Z,5.53
2022-10-21T06:41:15.290Z,6.33
2022-10-21T06:43:43.626Z,4.97
2022-10-21T06:46:13.833Z,4.40
2022-10-21T06:48:43.069Z,4.07
2022-10-21T06:51:15.043Z,4.00
2022-10-21T06:53:44.280Z,4.10
2022-10-21T06:56:14.369Z,4.00
2022-10-21T06:58:43.463Z,4.20
2022-10-21T07:01:27.397Z,4.10
2022-10-21T07:04:03.339Z,3.90
2022-10-21T07:09:04.672Z,3.63
2022-10-21T07:11:32.779Z,3.97
2022-10-21T07:14:02.108Z,3.77
2022-10-21T07:16:32.093Z,3.40
2022-10-21T07:19:00.065Z,3.50
2022-10-21T07:21:31.430Z,4.10
2022-10-21T07:24:00.656Z,3.63
2022-10-21T07:26:30.124Z,4.07
2022-10-21T07:29:00.253Z,3.70
2022-10-21T07:31:29.324Z,3.63
2022-10-21T07:33:57.202Z,4.47
2022-10-21T07:36:27.264Z,4.20
2022-10-21T07:39:00.051Z,4.00
2022-10-21T07:41:31.630Z,4.07
2022-10-21T07:44:00.226Z,3.77
2022-10-21T07:46:28.465Z,3.77
2022-10-21T07:48:56.274Z,4.60
2022-10-21T07:51:30.323Z,3.80
2022-10-21T07:54:02.106Z,3.80
2022-10-21T07:56:31.991Z,4.30
2022-10-21T07:59:01.547Z,3.57
2022-10-21T08:01:29.906Z,3.50
2022-10-21T08:03:58.695Z,3.43
2022-10-21T08:06:27.612Z,2.90
2022-10-21T08:08:57.338Z,3.50
2022-10-21T08:11:28.237Z,3.07
2022-10-21T08:13:56.567Z,4.00
2022-10-21T08:16:24.694Z,3.17
2022-10-21T08:18:52.525Z,3.00
2022-10-21T08:21:20.392Z,2.97
2022-10-21T08:23:48.245Z,3.13
2022-10-21T08:26:17.303Z,3.33
2022-10-21T08:28:47.026Z,3.10
2022-10-21T08:31:17.184Z,3.20
2022-10-21T08:33:45.439Z,3.20
2022-10-21T08:36:15.385Z,2.90
2022-10-21T08:38:43.464Z,3.20
2022-10-21T08:41:38.155Z,3.13
2022-10-21T08:44:15.637Z,2.87
2022-10-21T08:46:48.641Z,3.30
2022-10-21T08:49:25.011Z,3.43
2022-10-21T08:51:59.894Z,3.00
2022-10-21T08:54:35.471Z,3.30
2022-10-21T08:57:03.326Z,3.40
2022-10-21T08:59:34.565Z,3.50
2022-10-21T09:02:18.456Z,3.30
2022-10-21T09:04:53.944Z,3.33
2022-10-21T09:07:31.141Z,3.57
2022-10-21T09:10:02.658Z,3.47
2022-10-21T09:12:37.925Z,3.73
2022-10-21T09:15:23.834Z,3.80
2022-10-21T09:18:22.897Z,4.07
2022-10-21T09:21:04.631Z,4.47
2022-10-21T09:23:49.344Z,3.87
2022-10-21T09:26:30.341Z,3.90
2022-10-21T09:28:58.621Z,3.87
2022-10-21T09:31:30.446Z,3.80
2022-10-21T09:34:03.752Z,3.73
2022-10-21T09:36:36.035Z,4.17
2022-10-21T09:39:08.433Z,3.90
2022-10-21T09:41:42.315Z,4.03
2022-10-21T09:44:17.546Z,4.60
2022-10-21T09:46:48.415Z,4.30
2022-10-21T09:49:47.885Z,4.00
2022-10-21T09:52:12.712Z,4.30
2022-10-21T09:54:42.905Z,3.87
2022-10-21T09:57:16.025Z,4.00
2022-10-21T09:59:55.096Z,3.53
2022-10-21T10:02:30.157Z,4.07
2022-10-21T10:04:58.480Z,4.50
2022-10-21T10:07:34.601Z,4.27
2022-10-21T10:10:03.102Z,4.47
2022-10-21T10:12:31.430Z,4.50
2022-10-21T10:15:26.940Z,5.53
2022-10-21T10:17:59.641Z,4.50
2022-10-21T10:20:27.729Z,4.63
2022-10-21T10:23:10.795Z,4.10
2022-10-21T10:25:40.569Z,4.60
2022-10-21T10:28:19.785Z,4.50
2022-10-21T10:30:51.127Z,3.90
2022-10-21T10:33:24.238Z,4.00
2022-10-21T10:35:54.857Z,3.97
2022-10-21T10:38:35.649Z,4.30
2022-10-21T10:41:09.186Z,3.60
2022-10-21T10:43:43.583Z,4.00
2022-10-21T10:46:24.343Z,3.70
2022-10-21T10:48:57.116Z,3.93
2022-10-21T10:51:27.748Z,3.67
2022-10-21T10:54:04.618Z,7.77
2022-10-21T10:56:37.142Z,3.93
2022-10-21T10:59:15.614Z,3.60
2022-10-21T11:01:52.304Z,3.53
2022-10-21T11:04:28.563Z,3.30
2022-10-21T11:07:04.133Z,3.70
2022-10-21T11:09:34.503Z,3.43
2022-10-21T11:12:08.990Z,3.30
2022-10-21T11:14:36.908Z,3.93
2022-10-21T11:17:10.764Z,3.30
2022-10-21T11:19:52.462Z,3.47
2022-10-21T11:22:33.893Z,3.50
2022-10-21T11:25:12.611Z,3.33
2022-10-21T11:28:08.629Z,3.30
2022-10-21T11:30:51.949Z,3.07
2022-10-21T11:33:32.009Z,3.20
2022-10-21T11:36:08.502Z,3.53
2022-10-21T11:39:22.964Z,3.57
2022-10-21T11:41:57.834Z,3.47
2022-10-21T11:44:32.100Z,3.17
2022-10-21T11:47:09.076Z,3.03
2022-10-21T11:49:52.445Z,3.00
2022-10-21T11:52:35.982Z,3.15
2022-10-21T11:55:30.504Z,2.67
2022-10-21T11:58:08.156Z,3.00
2022-10-21T12:00:44.561Z,3.13
2022-10-21T12:03:37.543Z,2.77
2022-10-21T12:06:14.047Z,2.87
2022-10-21T12:08:51.862Z,3.20
2022-10-21T12:11:25.660Z,3.30
2022-10-21T12:13:58.914Z,2.50
2022-10-21T12:16:29.411Z,3.35
2022-10-21T12:19:01.214Z,2.35
2022-10-21T12:21:31.851Z,2.25
2022-10-21T12:24:21.619Z,2.08
2022-10-21T12:26:54.576Z,2.10
2022-10-21T12:29:29.968Z,2.00
2022-10-21T12:32:04.168Z,2.03
2022-10-21T12:34:32.369Z,1.90
2022-10-21T12:37:02.072Z,1.58
2022-10-21T12:39:51.547Z,1.40
2022-10-21T12:42:21.723Z,1.40
2022-10-21T12:44:51.345Z,1.90
2022-10-21T12:47:31.027Z,1.45
2022-10-21T12:50:08.205Z,1.25
2022-10-21T12:52:38.907Z,1.30
2022-10-21T12:55:20.353Z,1.40
2022-10-21T12:57:57.395Z,1.40
2022-10-21T13:00:57.296Z,1.08
2022-10-21T13:03:51.306Z,1.40
2022-10-21T13:06:54.567Z,1.30
2022-10-21T13:09:41.512Z,1.38
2022-10-21T13:12:29.013Z,1.40
2022-10-21T13:14:58.452Z,1.77
2022-10-21T13:17:49.085Z,1.90
2022-10-21T13:20:45.356Z,2.30
2022-10-21T13:23:38.113Z,1.60
2022-10-21T13:26:24.153Z,1.60
2022-10-21T13:29:01.866Z,1.67
2022-10-21T13:31:30.758Z,1.63
2022-10-21T13:33:58.970Z,1.65
2022-10-21T13:39:20.382Z,1.67
2022-10-21T13:41:55.808Z,1.60
2022-10-21T13:44:30.002Z,1.83
2022-10-21T13:46:58.512Z,1.63
2022-10-21T13:49:29.263Z,1.83
2022-10-21T13:51:58.305Z,1.60
2022-10-21T13:54:35.860Z,1.70
2022-10-21T13:57:07.629Z,1.90
2022-10-21T13:59:35.485Z,2.13
2022-10-21T14:02:05.140Z,2.58
2022-10-21T14:04:35.167Z,2.20
2022-10-21T14:07:06.296Z,2.20
2022-10-21T14:09:41.041Z,2.15
2022-10-21T14:12:18.745Z,2.00
2022-10-21T14:14:48.036Z,2.30
2022-10-21T14:17:19.212Z,2.10
2022-10-21T14:19:51.574Z,2.30
2022-10-21T14:22:21.887Z,2.50
2022-10-21T14:24:56.760Z,2.60
2022-10-21T14:27:28.420Z,1.98
2022-10-21T14:29:57.413Z,2.45
2022-10-21T14:32:27.944Z,2.03
2022-10-21T14:35:07.020Z,2.08
2022-10-21T14:37:37.212Z,2.08
2022-10-21T14:40:21.025Z,2.42
2022-10-21T14:42:53.274Z,1.92
2022-10-21T14:45:26.556Z,2.10
2022-10-21T14:48:02.907Z,2.15
2022-10-21T14:50:30.775Z,2.25
2022-10-21T14:52:58.613Z,1.75
2022-10-21T14:55:30.073Z,2.10
2022-10-21T14:58:04.774Z,2.05
2022-10-21T15:00:36.949Z,2.03
2022-10-21T15:03:05.148Z,2.50
2022-10-21T15:05:39.210Z,2.35
2022-10-21T15:08:29.305Z,2.25
2022-10-21T15:11:23.384Z,2.47
2022-10-21T15:13:59.446Z,2.00
2022-10-21T15:16:30.504Z,1.77
2022-10-21T15:19:00.042Z,2.05
2022-10-21T15:21:35.960Z,1.90
2022-10-21T15:24:05.439Z,1.80
2022-10-21T15:26:37.759Z,1.92
2022-10-21T15:29:14.917Z,1.73
2022-10-21T15:31:42.745Z,1.67
2022-10-21T15:34:15.890Z,1.98
2022-10-21T15:36:44.398Z,2.10
2022-10-21T15:39:12.899Z,1.70
2022-10-21T15:41:42.444Z,2.03
2022-10-21T15:44:19.075Z,1.88
2022-10-21T15:46:47.899Z,1.92
2022-10-21T15:49:19.062Z,1.90
2022-10-21T15:51:47.642Z,1.58
2022-10-21T15:54:17.874Z,2.00
2022-10-21T15:56:49.005Z,2.10
2022-10-21T15:59:19.539Z,1.90
2022-10-21T16:01:48.467Z,2.22
2022-10-21T16:04:16.860Z,2.35
2022-10-21T16:06:49.492Z,1.67
2022-10-21T16:09:20.884Z,1.70
2022-10-21T16:12:00.319Z,2.00
2022-10-21T16:14:30.502Z,2.25
2022-10-21T16:16:59.625Z,1.90
2022-10-21T16:19:27.652Z,1.85
2022-10-21T16:21:55.505Z,2.20
2022-10-21T16:24:23.362Z,1.70
2022-10-21T16:26:52.602Z,2.08
2022-10-21T16:29:22.012Z,1.73
2022-10-21T16:31:50.139Z,1.65
2022-10-21T16:34:17.945Z,2.05
2022-10-21T16:36:46.043Z,2.20
2022-10-21T16:39:15.949Z,1.85
2022-10-21T16:41:43.841Z,2.30
2022-10-21T16:44:13.048Z,1.88
2022-10-21T16:46:43.336Z,1.83
2022-10-21T16:49:14.134Z,1.90
2022-10-21T16:51:45.899Z,1.73
2022-10-21T16:54:14.554Z,2.03
2022-10-21T16:56:42.434Z,1.90
2022-10-21T16:59:10.273Z,2.42
2022-10-21T17:01:40.149Z,2.28
2022-10-21T17:04:08.225Z,2.70
2022-10-21T17:06:35.997Z,2.38
2022-10-21T17:09:03.965Z,2.78
2022-10-21T17:11:34.744Z,3.60
2022-10-21T17:14:03.181Z,2.42
2022-10-21T17:16:31.230Z,3.50
2022-10-21T17:19:00.416Z,3.00
2022-10-21T17:21:29.923Z,3.00
2022-10-21T17:23:59.208Z,2.90
2022-10-21T17:26:27.936Z,2.30
2022-10-21T17:28:56.944Z,3.15
2022-10-21T17:31:26.443Z,2.00
2022-10-21T17:33:56.176Z,2.00
2022-10-21T17:36:25.548Z,2.28
2022-10-21T17:38:53.396Z,1.98
2022-10-21T17:41:21.522Z,2.50
2022-10-21T17:43:49.664Z,2.28
2022-10-21T17:46:19.188Z,2.40
2022-10-21T17:48:49.808Z,2.00
2022-10-21T17:51:17.908Z,2.58
2022-10-21T17:53:49.752Z,2.20
2022-10-21T17:56:18.384Z,1.95
2022-10-21T17:58:46.652Z,2.25
2022-10-21T18:01:15.949Z,2.20
2022-10-21T18:03:44.309Z,2.05
2022-10-21T18:06:13.646Z,2.10
2022-10-21T18:08:41.687Z,2.78
2022-10-21T18:11:13.817Z,2.53
2022-10-21T18:13:42.189Z,1.93
2022-10-21T18:16:12.164Z,2.20
2022-10-21T18:21:15.109Z,2.20
2022-10-21T18:23:44.818Z,2.40
2022-10-21T18:26:16.688Z,2.30
2022-10-21T18:28:44.546Z,2.07
2022-10-21T18:31:13.683Z,2.40
2022-10-21T18:33:41.397Z,1.97
2022-10-21T18:36:10.494Z,2.50
2022-10-21T18:38:38.748Z,2.23
2022-10-21T18:41:21.479Z,2.07
2022-10-21T18:43:52.093Z,2.30
2022-10-21T18:46:20.885Z,2.43
2022-10-21T18:48:48.887Z,1.97
2022-10-21T18:51:18.894Z,2.17
2022-10-21T18:53:50.190Z,1.77
2022-10-21T18:56:21.247Z,2.10
2022-10-21T18:58:51.202Z,1.90
2022-10-21T19:01:21.361Z,2.27
2022-10-21T19:03:50.871Z,2.00
2022-10-21T19:06:29.523Z,2.63
2022-10-21T19:08:57.628Z,2.60
2022-10-21T19:11:25.749Z,2.23
2022-10-21T19:13:54.781Z,2.30
2022-10-21T19:16:23.028Z,2.10
2022-10-21T19:18:50.756Z,2.40
2022-10-21T19:21:19.503Z,2.33
2022-10-21T19:23:47.875Z,2.53
2022-10-21T19:26:18.845Z,2.20
2022-10-21T19:28:49.141Z,2.47
2022-10-21T19:31:21.031Z,2.50
2022-10-21T19:33:48.790Z,2.60
2022-10-21T19:36:16.529Z,2.70
2022-10-21T19:38:44.876Z,2.50
2022-10-21T19:41:15.926Z,2.40
2022-10-21T19:43:44.184Z,2.40
2022-10-21T19:46:17.453Z,2.20
2022-10-21T19:48:49.443Z,2.27
2022-10-21T19:51:19.678Z,2.40
2022-10-21T19:53:48.423Z,5.57
2022-10-21T19:56:18.067Z,3.63
2022-10-21T19:58:47.908Z,3.03
2022-10-21T20:01:17.937Z,3.20
2022-10-21T20:03:51.479Z,2.63
2022-10-21T20:06:21.799Z,2.53
2022-10-21T20:08:49.652Z,2.80
2022-10-21T20:11:20.353Z,2.43
2022-10-21T20:13:48.934Z,2.47
2022-10-21T20:16:18.028Z,2.47
2022-10-21T20:18:46.456Z,3.23
2022-10-21T20:21:15.748Z,2.30
2022-10-21T20:23:43.818Z,2.93
2022-10-21T20:26:11.703Z,2.60
2022-10-21T20:28:40.050Z,2.77
2022-10-21T20:31:10.429Z,2.50
2022-10-21T20:33:41.048Z,2.20
2022-10-21T20:36:12.148Z,2.67
2022-10-21T20:38:41.435Z,2.47
2022-10-21T20:41:11.720Z,2.20
2022-10-21T20:43:41.625Z,2.47
2022-10-21T20:46:12.106Z,2.20
2022-10-21T20:48:42.603Z,2.43
2022-10-21T20:51:12.646Z,2.10
2022-10-21T20:53:45.708Z,2.50
2022-10-21T20:56:13.769Z,2.37
2022-10-21T20:58:42.653Z,2.90
2022-10-21T21:01:12.015Z,2.47
2022-10-21T21:03:42.867Z,3.20
2022-10-21T21:06:11.436Z,2.60
2022-10-21T21:08:48.821Z,2.20
2022-10-21T21:11:22.293Z,2.57
2022-10-21T21:13:50.086Z,2.50
2022-10-21T21:16:19.782Z,2.27
2022-10-21T21:18:52.479Z,2.30
2022-10-21T21:21:21.830Z,2.00
2022-10-21T21:23:51.452Z,2.50
2022-10-21T21:26:21.020Z,2.10
2022-10-21T21:28:50.774Z,2.20
2022-10-21T21:31:19.751Z,2.23
2022-10-21T21:33:47.682Z,2.30
2022-10-21T21:36:17.048Z,2.20
2022-10-21T21:38:45.288Z,2.33
2022-10-21T21:41:16.638Z,2.57
2022-10-21T21:43:46.327Z,2.93
2022-10-21T21:46:22.499Z,11.83
2022-10-21T21:48:54.867Z,3.80
2022-10-21T21:51:25.484Z,2.40
2022-10-21T21:53:53.393Z,2.73
2022-10-21T21:56:23.341Z,3.40
2022-10-21T21:58:52.313Z,2.70
2022-10-21T22:01:22.027Z,2.87
2022-10-21T22:03:51.853Z,3.57
2022-10-21T22:06:20.290Z,2.60
2022-10-21T22:08:49.127Z,2.43
2022-10-21T22:11:18.942Z,2.33
2022-10-21T22:13:48.520Z,2.83
2022-10-21T22:16:17.034Z,2.20
2022-10-21T22:18:45.440Z,2.13
2022-10-21T22:21:16.281Z,1.93
2022-10-21T22:23:44.754Z,2.10
2022-10-21T22:26:13.635Z,2.10
2022-10-21T22:28:41.940Z,2.10
2022-10-21T22:31:13.739Z,1.90
2022-10-21T22:36:11.764Z,1.90
2022-10-21T22:38:39.656Z,1.83
2022-10-21T22:41:12.220Z,1.87
2022-10-21T22:43:40.661Z,1.70
2022-10-21T22:46:22.038Z,1.90
2022-10-21T22:48:57.979Z,1.80
2022-10-21T22:51:25.833Z,1.87
2022-10-21T22:53:56.551Z,1.87
2022-10-21T22:56:25.231Z,2.20
2022-10-21T22:58:53.451Z,1.80
2022-10-21T23:01:21.390Z,2.17
2022-10-21T23:03:49.237Z,2.23
2022-10-21T23:06:18.590Z,2.03
2022-10-21T23:08:46.503Z,2.60
2022-10-21T23:11:14.395Z,1.80
2022-10-21T23:13:56.088Z,2.03
2022-10-21T23:16:30.095Z,1.90
2022-10-21T23:18:58.018Z,2.30
2022-10-21T23:21:27.322Z,2.03
2022-10-21T23:23:55.200Z,2.37
2022-10-21T23:26:23.034Z,1.90
2022-10-21T23:28:50.885Z,2.00
2022-10-21T23:31:20.871Z,2.17
2022-10-21T23:33:48.910Z,2.10
2022-10-21T23:36:16.775Z,2.37
2022-10-21T23:38:45.913Z,2.50
2022-10-21T23:41:13.792Z,2.07
2022-10-21T23:43:41.589Z,2.30
2022-10-21T23:46:09.416Z,1.80
2022-10-21T23:48:38.815Z,2.03
2022-10-21T23:51:07.063Z,1.80
2022-10-21T23:53:35.107Z,2.07
2022-10-21T23:56:04.643Z,2.27
2022-10-21T23:58:32.607Z,2.20
